Aérodrome :
LOGIN :

S'inscrire | Disclaimer

   EN    FR    IT 

 










Légende :    VFR   VFR Marginal   IFR   IFR Intensif   IFR Très Intensif
Visi : 
Plafond : 
>= 8 km
>= 3000ft
5 à 8 km
1000 à 3000 ft
1500m à 5 km
500 à 1000 ft
800 à 1500m
200 à 500 ft
< 800m
< 200 ft
Symboles :   Orages  Brouillard  Fortes neiges  Fortes précipitations  Vent > 20 kt
SIGMETs :   Divers  Orages  Givrage  Turbulence  Onde Orograph.  Cendres Volcan.






- Altitude de l'aérodrome : 74 ft
- Code IATA : EIN


EHEH - Eindhoven

DERNIER METAR :
  • 220639Z AUTO VRB02KT 4400 BR NCD 08/08 Q1012 GRN TEMPO 1500 BR

METARs EXPIRÉS :
  • 220625Z AUTO VRB02KT 4700 BR NCD 07/07 Q1012 GRN TEMPO 1500 BR
  • 220614Z AUTO VRB01KT 5000 R21/2900U BR NCD 07/06 Q1012 WHT TEMPO 1500 BR
  • 220603Z AUTO 27001KT 2400 R21/2900D BR NCD 07/07 Q1012 YLO TEMPO 1200 BR
  • 220555Z AUTO VRB02KT 3100 R21/P3000U BR NCD 08/07 Q1012 YLO TEMPO 0500 BCFG
  • 220544Z AUTO VRB01KT 3100 R21/2500D BR NCD 07/07 Q1012 YLO TEMPO 0500 BCFG
  • 220525Z AUTO VRB01KT 1000 R21/P3000U BR NCD 07/06 Q1012 AMB TEMPO 0500 BCFG
  • 220517Z AUTO 16001KT 1100 R21/P3000U BR NCD 07/07 Q1012 AMB TEMPO 0500 BCFG
  • 220455Z AUTO VRB01KT 3300 R21/2700D BR NCD 08/08 Q1012 YLO TEMPO 0500 BCFG
  • 220447Z AUTO 16002KT 2700 R21/P3000D BR NCD 08/07 Q1012 YLO TEMPO 0500 BCFG
  • 220435Z AUTO 17002KT 2800 R21/P3000U BR NCD 08/07 Q1012 YLO TEMPO 0500 BCFG
  • 220425Z AUTO 19002KT 5000 BR NCD 08/08 Q1012 WHT TEMPO 0500 BCFG
  • 220419Z AUTO 20002KT 0700 FG NCD 08/08 Q1012 RED TEMPO 0500 BCFG
  • 220408Z AUTO 22002KT 2200 BR NCD 07/07 Q1012 YLO TEMPO 0500 BCFG
  • 220355Z AUTO 23001KT 7000 BR NCD 08/07 Q1012 WHT

TAF TAF EHEH
Valide du 22 à 06h jusqu'au 23 à 12h UTC


220522Z 2206/2312 VRB01KT 3500 BR NSC
TEMPO 2206/2208 0500 BCFG
BECMG 2206/2208 6000 NSW
BECMG 2210/2212 25003KT
BECMG 2310/2312 21012G22KT



MET'MAP, la Météo Aéronautique d'un coup d'oeil ! - Copyright ORBIFLY Décembre 2007 - Disclaimer

ORBIFLY MET'MAP TEAM :

Programmation & Développement : Alexandra Zaïnal
Sur une idée originale de : Baudouin d'Aumeries
Assistance à la programmation : Marc-Olivier Méhu
Soutien technique & logistique : Manuel Goepfert

Contact : metmap@orbifly.com




SOURCES & CREDITS :

   NOAA